Time;durP1;ratioP1;P1;durP2;ratioP2;P2;SDS_P1;SDS_P2;PMS_P1;PMS_P2;Temp;Humidity;BMP_temperature;BMP_pressure;BME280_temperature;BME280_humidity;BME280_pressure;Samples;Min_cycle;Max_cycle;Signal;HPM_P1;HPM_P2
2021/04/23 00:01:10;;;;;;;10.68;7.17;;;;;;;6.77;84.60;100715.98;2755978;86;21149;-64
2021/04/23 00:05:14;;;;;;;10.25;7.35;;;;;;;6.79;84.64;100726.86;2750651;86;21181;-65
2021/04/23 00:09:22;;;;;;;18.02;10.58;;;;;;;6.84;85.20;100729.21;2755867;86;21129;-64
2021/04/23 00:13:25;;;;;;;13.78;8.13;;;;;;;6.88;85.09;100729.44;2752744;85;21170;-65
2021/04/23 00:17:28;;;;;;;10.63;7.40;;;;;;;6.94;84.96;100728.19;2743907;85;21130;-65
2021/04/23 00:21:32;;;;;;;9.30;6.72;;;;;;;6.94;85.08;100723.77;2746592;86;21133;-65
2021/04/23 00:25:35;;;;;;;11.93;6.97;;;;;;;7.00;84.93;100719.42;2746775;86;21111;-65
2021/04/23 00:29:39;;;;;;;9.58;6.22;;;;;;;7.04;84.49;100709.98;2746862;86;21122;-66
2021/04/23 00:33:42;;;;;;;15.90;6.92;;;;;;;7.09;84.25;100711.90;2746470;86;21103;-65
2021/04/23 00:37:48;;;;;;;12.55;5.92;;;;;;;7.13;84.11;100714.73;2746744;86;21126;-65
2021/04/23 00:41:52;;;;;;;6.97;4.78;;;;;;;7.19;83.93;100713.52;2746751;86;21130;-65
2021/04/23 00:45:55;;;;;;;8.65;5.08;;;;;;;7.19;83.85;100716.99;2746535;86;21148;-65
2021/04/23 00:49:58;;;;;;;11.53;4.70;;;;;;;7.21;83.90;100717.75;2746664;86;21134;-66
2021/04/23 00:54:03;;;;;;;17.65;7.33;;;;;;;7.18;83.73;100720.59;2746737;86;21131;-65
2021/04/23 00:58:16;;;;;;;8.25;6.62;;;;;;;7.14;83.69;100720.40;2746811;86;21099;-66
2021/04/23 01:02:19;;;;;;;13.95;6.10;;;;;;;7.14;83.70;100727.84;2746601;86;21130;-65
2021/04/23 01:06:27;;;;;;;15.00;6.00;;;;;;;7.11;83.57;100722.75;2746656;86;21130;-65
2021/04/23 01:10:30;;;;;;;10.20;5.50;;;;;;;7.13;83.64;100721.34;2702426;88;21122;-64
2021/04/23 01:14:34;;;;;;;14.35;6.30;;;;;;;7.13;83.76;100722.66;2746807;86;21157;-65
2021/04/23 01:18:39;;;;;;;42.80;21.95;;;;;;;7.14;83.46;100727.84;2746648;86;21114;-65
2021/04/23 01:22:43;;;;;;;30.37;18.20;;;;;;;7.22;83.28;100734.00;2746911;86;21118;-65
2021/04/23 01:26:53;;;;;;;10.58;7.65;;;;;;;7.33;82.90;100745.74;2747100;86;21118;-66
2021/04/23 01:30:58;;;;;;;9.25;5.78;;;;;;;7.35;82.92;100745.17;2747098;86;21111;-66
2021/04/23 01:35:02;;;;;;;10.87;5.07;;;;;;;7.33;83.52;100753.19;2747132;86;21157;-65
2021/04/23 01:39:10;;;;;;;8.08;4.53;;;;;;;7.36;83.82;100755.65;2747001;86;21131;-65
2021/04/23 01:43:16;;;;;;;8.88;6.42;;;;;;;7.37;83.71;100747.25;2683429;87;21205;-65
2021/04/23 01:47:19;;;;;;;14.78;6.65;;;;;;;7.35;83.45;100749.14;2726327;86;21145;-65
2021/04/23 01:51:22;;;;;;;10.38;8.08;;;;;;;7.35;82.83;100741.20;2726538;87;21133;-67
2021/04/23 01:55:25;;;;;;;9.70;7.75;;;;;;;7.34;82.84;100743.47;2726643;86;21142;-65
2021/04/23 01:59:29;;;;;;;12.93;6.10;;;;;;;7.37;82.99;100737.98;2726653;87;21138;-65
2021/04/23 02:03:32;;;;;;;10.68;7.08;;;;;;;7.38;83.19;100744.52;2726463;87;21114;-66
2021/04/23 02:07:36;;;;;;;9.20;5.25;;;;;;;7.40;83.21;100743.09;2727009;87;21134;-65
2021/04/23 02:11:43;;;;;;;9.05;5.42;;;;;;;7.36;83.26;100747.70;2752611;86;21102;-66
2021/04/23 02:15:46;;;;;;;9.63;5.08;;;;;;;7.34;83.18;100746.13;2726202;87;21169;-65
2021/04/23 02:19:49;;;;;;;12.82;8.38;;;;;;;7.33;83.18;100753.69;2747172;86;21120;-65
2021/04/23 02:23:53;;;;;;;9.00;6.60;;;;;;;7.36;82.65;100756.14;2747167;86;21178;-65
2021/04/23 02:27:56;;;;;;;8.45;5.17;;;;;;;7.37;82.59;100757.38;2746802;86;21131;-65
2021/04/23 02:31:59;;;;;;;10.70;6.28;;;;;;;7.41;82.79;100761.99;2746801;86;21154;-65
2021/04/23 02:36:03;;;;;;;10.45;5.72;;;;;;;7.43;82.32;100759.64;2746928;86;21119;-65
2021/04/23 02:40:11;;;;;;;11.50;5.83;;;;;;;7.51;82.04;100764.47;2746897;86;21115;-65
2021/04/23 02:44:15;;;;;;;23.40;6.67;;;;;;;7.52;81.76;100760.01;2762975;86;21157;-65
2021/04/23 02:48:19;;;;;;;7.17;4.75;;;;;;;7.55;81.81;100762.00;2764328;86;21090;-65
2021/04/23 02:52:22;;;;;;;9.13;5.40;;;;;;;7.60;81.69;100763.52;2764343;86;21110;-65
2021/04/23 02:56:28;;;;;;;9.55;5.53;;;;;;;7.61;81.30;100758.59;2764289;86;21106;-65
2021/04/23 03:00:35;;;;;;;10.05;5.37;;;;;;;7.65;81.49;100760.97;2764327;86;21123;-64
2021/04/23 03:04:38;;;;;;;6.55;4.70;;;;;;;7.64;81.53;100750.45;2693016;88;21128;-65
2021/04/23 03:08:41;;;;;;;6.83;5.33;;;;;;;7.56;81.90;100750.47;2717156;87;21154;-65
2021/04/23 03:12:45;;;;;;;10.05;6.33;;;;;;;7.57;82.43;100753.49;2716844;86;21635;-63
2021/04/23 03:16:49;;;;;;;9.28;5.42;;;;;;;7.60;82.38;100747.62;2693431;88;21101;-64
2021/04/23 03:20:55;;;;;;;9.03;5.10;;;;;;;7.65;82.32;100750.83;2717001;87;21138;-63
2021/04/23 03:24:58;;;;;;;10.35;7.12;;;;;;;7.70;82.14;100754.06;2693344;88;21140;-63
2021/04/23 03:29:02;;;;;;;15.45;6.37;;;;;;;7.73;82.11;100756.52;2716864;87;21146;-63
2021/04/23 03:33:09;;;;;;;11.70;6.00;;;;;;;7.72;82.09;100756.98;2693206;87;21156;-63
2021/04/23 03:37:11;;;;;;;8.50;4.55;;;;;;;7.72;82.26;100756.14;2717184;87;21146;-64
2021/04/23 03:41:30;;;;;;;9.38;5.92;;;;;;;7.72;82.38;100758.30;2693055;86;21193;-63
2021/04/23 03:45:34;;;;;;;10.43;6.72;;;;;;;7.74;82.24;100762.19;2716816;87;21149;-63
2021/04/23 03:49:37;;;;;;;8.48;5.33;;;;;;;7.77;82.21;100764.64;2693109;87;21120;-64
2021/04/23 03:53:41;;;;;;;14.70;7.20;;;;;;;7.80;82.15;100768.91;2716984;87;21153;-64
2021/04/23 03:57:44;;;;;;;7.80;4.92;;;;;;;7.81;82.03;100772.77;2714042;87;21535;-64
2021/04/23 04:01:47;;;;;;;12.85;7.10;;;;;;;7.79;81.86;100776.48;2686785;88;21203;-62
2021/04/23 04:05:51;;;;;;;14.85;5.92;;;;;;;7.76;81.75;100776.64;2713775;87;21205;-64
2021/04/23 04:09:54;;;;;;;21.52;7.00;;;;;;;7.74;81.54;100781.19;2692949;87;21168;-63
2021/04/23 04:13:57;;;;;;;13.03;6.85;;;;;;;7.71;81.51;100783.57;2717183;87;21134;-62
2021/04/23 04:18:00;;;;;;;8.45;5.92;;;;;;;7.70;81.51;100791.14;2692913;87;21120;-65
2021/04/23 04:22:03;;;;;;;9.48;5.55;;;;;;;7.67;81.47;100796.14;2717149;87;21146;-64
2021/04/23 04:26:06;;;;;;;10.72;6.05;;;;;;;7.63;81.31;100795.09;2692864;87;21148;-64
2021/04/23 04:30:10;;;;;;;16.20;5.53;;;;;;;7.57;81.43;100792.38;2716907;87;21205;-64
2021/04/23 04:34:16;;;;;;;14.13;5.72;;;;;;;7.51;81.25;100801.53;2693414;88;21121;-63
2021/04/23 04:38:19;;;;;;;9.88;5.65;;;;;;;7.48;81.16;100800.86;2717005;87;21106;-63
2021/04/23 04:42:22;;;;;;;7.55;5.30;;;;;;;7.45;81.18;100796.59;2699247;87;21137;-64
2021/04/23 04:46:24;;;;;;;9.93;5.25;;;;;;;7.48;81.47;100808.80;2725995;87;21172;-63
2021/04/23 04:50:35;;;;;;;12.58;5.72;;;;;;;7.51;81.35;100809.47;2726495;87;21149;-62
2021/04/23 04:54:37;;;;;;;11.85;4.53;;;;;;;7.59;80.99;100810.34;2726333;87;21133;-62
2021/04/23 04:58:41;;;;;;;13.20;6.78;;;;;;;7.63;80.11;100817.14;2726385;87;21158;-62
2021/04/23 05:02:47;;;;;;;7.53;4.15;;;;;;;7.68;80.00;100814.22;2752493;86;21170;-62
2021/04/23 05:06:50;;;;;;;9.18;5.60;;;;;;;7.71;79.98;100818.83;2746718;86;21114;-62
2021/04/23 05:10:53;;;;;;;11.40;5.95;;;;;;;7.78;80.14;100821.95;2747075;86;21119;-63
2021/04/23 05:14:56;;;;;;;22.15;5.50;;;;;;;7.86;79.91;100827.66;2747045;86;21139;-62
2021/04/23 05:18:59;;;;;;;11.85;4.25;;;;;;;7.97;79.22;100834.06;2746978;86;21142;-64
2021/04/23 05:23:02;;;;;;;11.83;6.60;;;;;;;7.96;79.03;100830.58;2746985;86;21166;-62
2021/04/23 05:27:06;;;;;;;10.30;5.25;;;;;;;7.94;78.70;100839.56;2746660;86;21700;-63
2021/04/23 05:31:08;;;;;;;8.95;5.70;;;;;;;7.95;77.92;100844.74;2746729;86;21171;-63
2021/04/23 05:35:14;;;;;;;13.55;5.53;;;;;;;8.00;78.30;100841.81;2746846;86;21151;-63
2021/04/23 05:39:17;;;;;;;9.33;5.58;;;;;;;8.04;78.08;100836.70;2747143;86;21135;-64
2021/04/23 05:43:20;;;;;;;11.55;5.15;;;;;;;8.06;77.63;100853.38;2754980;86;21131;-63
2021/04/23 05:47:24;;;;;;;11.80;6.17;;;;;;;8.03;77.99;100858.84;2735374;87;21143;-64
2021/04/23 05:51:28;;;;;;;12.50;5.35;;;;;;;8.00;77.82;100859.04;2734796;87;21134;-64
2021/04/23 05:55:31;;;;;;;16.48;8.30;;;;;;;8.02;78.52;100854.98;2734815;87;21144;-62
2021/04/23 05:59:33;;;;;;;10.60;5.95;;;;;;;8.02;78.50;100865.58;2735030;87;21121;-63
2021/04/23 06:03:36;;;;;;;10.10;7.17;;;;;;;7.94;77.99;100863.41;2735084;87;21145;-64
2021/04/23 06:07:39;;;;;;;13.50;7.25;;;;;;;7.85;77.75;100871.44;2735155;87;21133;-63
2021/04/23 06:11:42;;;;;;;13.75;6.67;;;;;;;7.80;78.46;100878.33;2735053;87;21113;-64
2021/04/23 06:15:48;;;;;;;13.30;5.28;;;;;;;7.82;79.46;100877.77;2762052;85;21102;-64
2021/04/23 06:19:51;;;;;;;19.02;5.25;;;;;;;7.85;80.03;100876.73;2734944;87;21138;-63
2021/04/23 06:23:54;;;;;;;15.72;5.62;;;;;;;7.89;79.08;100867.66;2735222;87;21098;-63
2021/04/23 06:27:57;;;;;;;10.20;7.08;;;;;;;7.89;78.26;100880.06;2735210;86;21137;-64
2021/04/23 06:32:00;;;;;;;14.75;6.65;;;;;;;7.91;77.80;100883.46;2734908;87;21125;-63
2021/04/23 06:36:05;;;;;;;12.95;7.45;;;;;;;8.01;78.42;100877.96;2735134;87;21153;-63
2021/04/23 06:40:10;;;;;;;12.98;7.83;;;;;;;8.10;75.54;100870.78;2734800;87;21206;-63
2021/04/23 06:44:14;;;;;;;11.08;5.35;;;;;;;8.13;75.36;100882.52;2753393;85;21640;-64
2021/04/23 06:48:17;;;;;;;13.40;6.92;;;;;;;8.10;74.61;100881.84;2746558;86;21130;-64
2021/04/23 06:52:20;;;;;;;10.08;7.55;;;;;;;8.17;75.85;100901.73;2746557;86;21139;-64
2021/04/23 06:56:22;;;;;;;12.28;5.75;;;;;;;8.18;75.43;100903.44;2746806;86;21544;-64
2021/04/23 07:00:32;;;;;;;20.35;6.22;;;;;;;8.20;74.37;100890.07;2746670;86;21134;-63
2021/04/23 07:04:35;;;;;;;14.30;6.42;;;;;;;8.27;74.71;100900.69;2746903;86;21154;-64
2021/04/23 07:08:39;;;;;;;17.23;8.35;;;;;;;8.42;75.93;100911.63;2746631;86;21119;-63
2021/04/23 07:12:41;;;;;;;16.62;7.17;;;;;;;8.44;72.59;100914.20;2746824;86;21194;-64
2021/04/23 07:16:45;;;;;;;15.50;8.00;;;;;;;8.43;72.63;100918.64;2746629;86;21617;-63
2021/04/23 07:20:48;;;;;;;12.40;6.20;;;;;;;8.57;73.76;100919.61;2746729;86;21158;-64
2021/04/23 07:24:51;;;;;;;13.72;7.72;;;;;;;8.65;72.15;100917.80;2746962;86;21139;-63
2021/04/23 07:28:53;;;;;;;15.68;6.10;;;;;;;8.73;72.92;100917.31;2746717;86;21122;-64
2021/04/23 07:32:58;;;;;;;34.78;6.35;;;;;;;8.77;72.23;100921.00;2746629;86;21134;-64
2021/04/23 07:37:02;;;;;;;14.05;8.35;;;;;;;8.78;70.82;100917.86;2746490;86;21548;-65
2021/04/23 07:41:05;;;;;;;8.90;5.53;;;;;;;8.74;71.82;100918.52;2746699;86;21186;-63
2021/04/23 07:45:10;;;;;;;12.20;6.75;;;;;;;8.72;73.69;100923.08;2760333;86;21142;-64
2021/04/23 07:49:13;;;;;;;20.68;7.72;;;;;;;8.67;74.10;100927.38;2763988;86;21121;-64
2021/04/23 07:53:16;;;;;;;9.00;7.62;;;;;;;8.74;74.47;100937.58;2764294;86;21122;-63
2021/04/23 07:57:19;;;;;;;14.33;5.87;;;;;;;8.70;71.90;100929.82;2764364;86;21146;-64
2021/04/23 08:01:22;;;;;;;10.95;7.28;;;;;;;8.73;72.76;100955.28;2764323;86;21165;-64
2021/04/23 08:05:25;;;;;;;9.93;7.58;;;;;;;8.82;72.24;100948.54;2693137;88;21204;-64
2021/04/23 08:09:30;;;;;;;12.47;5.90;;;;;;;8.84;69.96;100943.52;2715529;87;21179;-65
2021/04/23 08:13:32;;;;;;;12.30;6.80;;;;;;;8.79;69.54;100943.44;2692980;88;21136;-63
2021/04/23 08:17:36;;;;;;;16.80;5.67;;;;;;;8.82;70.21;100956.04;2716769;86;21149;-64
2021/04/23 08:21:38;;;;;;;10.65;5.30;;;;;;;8.91;69.59;100951.08;2693188;87;21104;-64
2021/04/23 08:25:41;;;;;;;12.75;7.67;;;;;;;9.08;69.86;100948.68;2716892;87;21138;-63
2021/04/23 08:29:45;;;;;;;12.30;6.25;;;;;;;9.29;69.50;100955.23;2764286;86;21109;-64
2021/04/23 08:33:48;;;;;;;16.17;7.00;;;;;;;9.57;69.38;100956.05;2764570;86;21090;-64
2021/04/23 08:37:52;;;;;;;13.25;6.97;;;;;;;9.68;68.30;100950.01;2764358;86;21190;-64
2021/04/23 08:41:55;;;;;;;13.05;6.50;;;;;;;9.77;68.53;100957.83;2764164;85;21110;-65
2021/04/23 08:45:58;;;;;;;11.75;7.37;;;;;;;9.67;65.98;100954.95;2764151;86;21102;-63
2021/04/23 08:50:01;;;;;;;9.05;6.25;;;;;;;9.49;66.62;100963.69;2764572;86;21117;-65
2021/04/23 08:54:06;;;;;;;13.68;7.62;;;;;;;9.43;67.83;100970.25;2764123;86;21146;-65
2021/04/23 08:58:30;;;;;;;11.08;6.83;;;;;;;9.51;67.25;100967.55;2764425;86;21556;-64
2021/04/23 09:02:33;;;;;;;11.28;7.85;;;;;;;9.51;68.67;100971.07;2783153;85;21093;-64
2021/04/23 09:06:37;;;;;;;17.27;9.25;;;;;;;9.54;66.18;100976.17;2783035;85;21116;-64
2021/04/23 09:10:45;;;;;;;12.18;7.40;;;;;;;9.40;66.19;100969.59;2783152;85;21120;-64
2021/04/23 09:14:49;;;;;;;10.20;6.62;;;;;;;9.51;65.51;100976.38;2783101;85;21089;-65
2021/04/23 09:18:52;;;;;;;15.03;7.67;;;;;;;9.60;66.92;100979.36;2783252;85;21148;-64
2021/04/23 09:23:09;;;;;;;9.60;5.80;;;;;;;9.49;66.46;100958.84;2782718;85;21125;-63
2021/04/23 09:31:42;;;;;;;14.55;5.95;;;;;;;9.55;64.38;100980.53;2762767;86;21145;-65
2021/04/23 09:35:46;;;;;;;8.15;4.55;;;;;;;9.47;64.10;100986.84;2762216;86;21548;-64
2021/04/23 09:39:51;;;;;;;18.05;6.75;;;;;;;9.56;65.35;100976.92;2762670;86;21166;-64
2021/04/23 09:43:54;;;;;;;11.43;5.70;;;;;;;9.57;63.91;100975.96;2766782;85;21579;-64
2021/04/23 09:48:00;;;;;;;15.43;5.53;;;;;;;9.70;63.24;100980.47;2774473;85;21109;-64
2021/04/23 09:52:07;;;;;;;8.70;5.37;;;;;;;9.83;63.47;100988.45;2783685;85;21104;-64
2021/04/23 09:56:09;;;;;;;8.75;4.55;;;;;;;9.88;62.46;100973.54;2783694;85;21140;-64
2021/04/23 10:00:14;;;;;;;11.83;7.58;;;;;;;10.06;60.92;100993.55;2783782;85;21144;-62
2021/04/23 10:04:24;;;;;;;7.30;4.35;;;;;;;9.92;58.74;100994.46;2773477;84;21180;-62
2021/04/23 10:08:28;;;;;;;6.95;4.90;;;;;;;9.86;60.03;100989.11;2763660;86;21124;-62
2021/04/23 10:12:52;;;;;;;7.00;4.95;;;;;;;9.86;61.73;100987.78;2742062;85;21153;-62
2021/04/23 10:16:58;;;;;;;10.20;6.75;;;;;;;10.03;62.09;100988.91;2740302;86;21128;-61
2021/04/23 10:21:00;;;;;;;8.28;5.58;;;;;;;10.22;64.33;100995.99;2716325;86;21193;-61
2021/04/23 10:25:05;;;;;;;12.03;6.37;;;;;;;10.38;65.08;100986.45;2740497;86;21201;-61
2021/04/23 10:29:08;;;;;;;12.43;5.47;;;;;;;10.56;64.72;100995.00;2740167;86;21184;-62
2021/04/23 10:33:15;;;;;;;9.68;4.17;;;;;;;10.65;63.90;100985.52;2740511;86;21599;-61
2021/04/23 10:37:18;;;;;;;16.27;7.35;;;;;;;10.57;61.91;100990.52;2740072;85;21722;-62
2021/04/23 10:41:20;;;;;;;8.95;6.00;;;;;;;10.33;62.57;100993.08;2740342;86;21185;-61
2021/04/23 10:45:41;;;;;;;9.10;5.58;;;;;;;10.22;63.87;100995.12;2740036;86;21169;-61
2021/04/23 10:50:14;;;;;;;7.25;4.25;;;;;;;10.25;63.28;100988.29;2740246;86;21157;-62
2021/04/23 10:54:16;;;;;;;11.78;4.83;;;;;;;10.39;62.31;100996.14;2740228;86;21145;-62
2021/04/23 10:58:33;;;;;;;16.10;5.87;;;;;;;10.51;63.52;100997.11;2740097;86;21749;-62
2021/04/23 11:02:37;;;;;;;6.83;4.85;;;;;;;10.64;63.77;100994.92;2740542;86;21164;-62
2021/04/23 11:07:01;;;;;;;8.90;5.28;;;;;;;10.63;60.44;100998.55;2740438;86;21125;-62
2021/04/23 11:11:13;;;;;;;12.20;6.58;;;;;;;10.67;60.77;100986.72;2740405;85;21563;-62
2021/04/23 11:15:18;;;;;;;7.17;5.40;;;;;;;10.57;60.00;100967.91;2740719;86;21161;-63
2021/04/23 11:19:31;;;;;;;10.63;5.87;;;;;;;10.57;62.20;100984.73;2740632;86;21192;-62
2021/04/23 11:24:02;;;;;;;14.60;6.45;;;;;;;10.40;60.23;100987.23;2740953;86;21632;-62
2021/04/23 11:28:08;;;;;;;15.90;6.42;;;;;;;10.46;60.80;101006.40;2738273;86;21109;-62
2021/04/23 11:32:25;;;;;;;10.53;5.60;;;;;;;10.46;61.11;100997.09;2741078;85;21141;-62
2021/04/23 11:40:55;;;;;;;11.40;6.83;;;;;;;10.34;60.52;101006.75;2975668;77;22962;-60
2021/04/23 11:45:05;;;;;;;15.15;7.70;;;;;;;10.41;62.81;100985.44;2912432;79;21572;-62
2021/04/23 11:49:13;;;;;;;9.98;5.58;;;;;;;10.52;61.65;100990.86;2895739;80;21169;-62
2021/04/23 11:53:19;;;;;;;7.85;5.62;;;;;;;10.64;61.48;100980.30;2886455;81;21161;-61
2021/04/23 11:57:29;;;;;;;11.77;5.87;;;;;;;10.97;60.96;100974.84;2864052;82;21135;-62
2021/04/23 12:01:38;;;;;;;7.78;3.90;;;;;;;11.07;60.35;100980.34;2850706;83;21164;-62
2021/04/23 12:10:11;;;;;;;8.95;5.25;;;;;;;11.25;60.99;100969.68;2993405;77;22891;-61
2021/04/23 12:14:15;;;;;;;9.10;5.33;;;;;;;11.11;57.85;100967.17;2846439;83;21173;-62
2021/04/23 12:18:22;;;;;;;10.05;5.08;;;;;;;10.92;59.23;100972.51;2895738;82;21605;-63
2021/04/23 12:27:13;;;;;;;4.95;3.98;;;;;;;11.43;59.37;100976.77;2704759;80;21173;-64
2021/04/23 12:31:28;;;;;;;12.35;5.10;;;;;;;11.70;57.94;100985.48;2692454;86;21204;-63
2021/04/23 12:35:38;;;;;;;12.18;5.95;;;;;;;11.77;59.27;100972.04;2696421;86;21208;-65
2021/04/23 12:39:41;;;;;;;8.68;4.30;;;;;;;11.99;58.66;100974.42;2683794;88;21238;-62
2021/04/23 12:43:44;;;;;;;7.92;4.20;;;;;;;11.74;54.29;100980.27;2626361;89;21186;-62
2021/04/23 12:47:50;;;;;;;8.73;3.60;;;;;;;11.75;54.59;100969.98;2626039;90;21348;-62
2021/04/23 12:52:04;;;;;;;9.65;4.90;;;;;;;12.08;57.14;100971.06;2690390;87;21133;-62
2021/04/23 12:56:07;;;;;;;11.83;4.85;;;;;;;12.46;56.25;100966.34;2724459;85;21189;-62
2021/04/23 13:00:15;;;;;;;8.03;4.85;;;;;;;12.57;53.92;100969.02;2725773;87;21184;-62
2021/04/23 13:04:20;;;;;;;9.38;5.85;;;;;;;12.75;55.55;100948.98;2725986;87;21132;-62
2021/04/23 13:08:23;;;;;;;10.00;5.08;;;;;;;13.04;55.72;100958.63;2725536;86;21238;-60
2021/04/23 13:12:35;;;;;;;5.92;4.28;;;;;;;13.07;54.92;100957.06;2725569;86;21689;-61
2021/04/23 13:16:57;;;;;;;9.78;4.55;;;;;;;13.08;53.14;100944.55;2725179;86;21152;-62
2021/04/23 13:21:07;;;;;;;7.67;3.92;;;;;;;13.10;53.71;100954.61;2724351;87;21590;-62
2021/04/23 13:25:15;;;;;;;12.10;4.10;;;;;;;13.13;51.99;100955.69;2719955;86;21192;-62
2021/04/23 13:29:18;;;;;;;8.38;4.45;;;;;;;13.31;53.34;100951.14;2729379;85;21196;-60
2021/04/23 13:33:38;;;;;;;19.05;5.15;;;;;;;13.27;52.23;100956.74;2729691;87;21216;-62
2021/04/23 13:37:41;;;;;;;9.13;3.20;;;;;;;12.96;49.88;100949.91;2777326;85;21622;-61
2021/04/23 13:41:47;;;;;;;6.25;3.50;;;;;;;12.84;48.72;100961.09;2777556;84;21164;-62
2021/04/23 13:46:00;;;;;;;6.87;4.40;;;;;;;12.76;52.37;100933.32;2777973;85;21653;-61
2021/04/23 13:50:14;;;;;;;11.12;4.62;;;;;;;12.92;51.10;100947.63;2775423;85;21750;-61
2021/04/23 13:54:23;;;;;;;7.83;3.80;;;;;;;13.14;52.60;100948.03;2773923;85;21202;-61
2021/04/23 13:58:26;;;;;;;10.00;3.62;;;;;;;13.02;49.29;100951.73;2772235;85;21193;-61
2021/04/23 14:02:28;;;;;;;13.95;4.33;;;;;;;12.81;48.81;100950.67;2772129;85;21178;-61
2021/04/23 14:06:34;;;;;;;6.85;4.25;;;;;;;12.92;51.71;100943.13;2772550;85;21168;-61
2021/04/23 14:10:43;;;;;;;10.25;4.37;;;;;;;13.26;53.01;100940.36;2779694;84;21185;-61
2021/04/23 14:14:51;;;;;;;8.83;4.05;;;;;;;13.38;50.82;100948.34;2812560;83;21176;-63
2021/04/23 14:18:57;;;;;;;6.45;4.30;;;;;;;13.42;51.65;100945.77;2790316;84;21622;-61
2021/04/23 14:23:02;;;;;;;6.87;3.55;;;;;;;13.64;52.13;100953.34;2793257;83;21176;-61
2021/04/23 14:27:06;;;;;;;5.87;3.77;;;;;;;13.51;49.99;100955.70;2818053;83;21169;-62
2021/04/23 14:31:08;;;;;;;4.47;3.12;;;;;;;13.50;50.06;100938.47;2822338;84;21161;-62
2021/04/23 14:35:13;;;;;;;6.35;4.62;;;;;;;13.28;49.65;100943.74;2821783;84;21124;-61
2021/04/23 14:39:18;;;;;;;5.33;3.27;;;;;;;13.03;50.27;100950.76;2821913;84;21140;-61
2021/04/23 14:43:24;;;;;;;7.67;4.67;;;;;;;12.92;51.27;100940.95;2822355;84;21177;-61
2021/04/23 14:47:28;;;;;;;6.40;3.33;;;;;;;13.22;53.04;100942.92;2822107;83;21598;-62
2021/04/23 14:51:32;;;;;;;8.85;4.05;;;;;;;13.43;51.89;100935.47;2821358;82;21153;-62
2021/04/23 14:55:35;;;;;;;13.10;4.17;;;;;;;13.37;51.25;100947.48;2822233;84;21129;-61
2021/04/23 14:59:38;;;;;;;8.85;4.65;;;;;;;13.38;51.71;100946.50;2821989;84;21574;-61
2021/04/23 15:03:43;;;;;;;12.85;3.02;;;;;;;13.20;50.57;100928.85;2821964;84;21121;-61
2021/04/23 15:07:46;;;;;;;8.10;4.10;;;;;;;12.84;48.56;100934.40;2821965;84;21164;-61
2021/04/23 15:11:48;;;;;;;6.22;2.85;;;;;;;12.83;49.60;100924.69;2822086;84;21142;-61
2021/04/23 15:15:52;;;;;;;5.65;3.60;;;;;;;12.98;50.26;100923.95;2822767;82;21431;-61
2021/04/23 15:19:55;;;;;;;9.30;4.85;;;;;;;13.16;52.13;100924.72;2822031;84;21157;-60
2021/04/23 15:24:00;;;;;;;7.35;4.15;;;;;;;13.32;53.23;100918.97;2822279;83;21157;-61
2021/04/23 15:28:06;;;;;;;11.95;5.67;;;;;;;13.50;52.97;100930.45;2820436;84;21141;-61
2021/04/23 15:32:09;;;;;;;6.65;4.10;;;;;;;13.60;53.39;100932.70;2819924;83;21638;-62
2021/04/23 15:36:13;;;;;;;6.83;4.35;;;;;;;13.77;52.90;100941.11;2820351;84;21578;-61
2021/04/23 15:40:20;;;;;;;8.63;4.70;;;;;;;13.86;53.53;100932.33;2818312;84;21174;-61
2021/04/23 15:44:23;;;;;;;8.18;4.65;;;;;;;13.78;52.53;100937.46;2819080;82;21157;-61
2021/04/23 15:48:28;;;;;;;9.85;4.58;;;;;;;13.68;53.66;100942.74;2826841;82;21177;-62
2021/04/23 15:52:30;;;;;;;8.05;5.95;;;;;;;13.33;54.05;100937.16;2820673;82;21176;-61
2021/04/23 15:56:33;;;;;;;9.58;4.50;;;;;;;13.04;55.78;100953.28;2820494;82;22266;-61
2021/04/23 16:00:37;;;;;;;6.83;3.15;;;;;;;12.75;56.25;100940.97;2820174;82;21156;-62
2021/04/23 16:04:39;;;;;;;10.95;5.70;;;;;;;12.59;55.56;100937.36;2819797;82;21171;-62
2021/04/23 16:08:42;;;;;;;11.38;3.42;;;;;;;12.61;57.23;100928.27;2819904;82;22121;-61
2021/04/23 16:12:47;;;;;;;9.53;2.45;;;;;;;12.65;53.17;100920.38;2820139;83;21145;-61
2021/04/23 16:16:50;;;;;;;9.75;5.75;;;;;;;12.55;51.94;100925.61;2819757;84;21165;-62
2021/04/23 16:20:55;;;;;;;7.08;5.15;;;;;;;12.59;55.55;100935.56;2820046;84;21197;-62
2021/04/23 16:24:58;;;;;;;9.78;5.55;;;;;;;12.52;56.51;100927.66;2820058;83;21184;-61
2021/04/23 16:29:01;;;;;;;10.68;5.33;;;;;;;12.27;56.13;100938.95;2814656;84;21200;-61
2021/04/23 16:33:05;;;;;;;9.45;5.90;;;;;;;11.97;57.59;100929.67;2813489;84;21443;-61
2021/04/23 16:37:10;;;;;;;10.05;5.40;;;;;;;11.73;58.35;100938.59;2813480;84;21180;-61
2021/04/23 16:41:14;;;;;;;10.88;5.83;;;;;;;11.58;59.30;100941.45;2824560;84;21174;-62
2021/04/23 16:45:17;;;;;;;8.70;5.33;;;;;;;11.53;59.54;100948.13;2833934;83;21143;-61
2021/04/23 16:49:20;;;;;;;16.82;5.45;;;;;;;11.51;59.33;100950.89;2833941;84;21171;-60
2021/04/23 16:53:23;;;;;;;9.93;5.47;;;;;;;11.42;59.87;100944.44;2832482;82;21166;-61
2021/04/23 16:57:26;;;;;;;6.60;4.62;;;;;;;11.30;59.94;100936.05;2819811;82;21702;-61
2021/04/23 17:01:29;;;;;;;10.90;5.22;;;;;;;11.15;60.19;100930.03;2832196;82;21614;-63
2021/04/23 17:05:32;;;;;;;7.87;5.53;;;;;;;11.09;60.69;100940.65;2834125;84;21543;-61
2021/04/23 17:09:35;;;;;;;16.57;5.65;;;;;;;11.08;61.25;100943.45;2825122;83;21171;-62
2021/04/23 17:13:39;;;;;;;11.88;5.50;;;;;;;11.13;61.80;100941.28;2833991;84;21144;-63
2021/04/23 17:17:43;;;;;;;10.05;5.67;;;;;;;11.20;61.09;100938.55;2833968;83;21794;-62
2021/04/23 17:21:48;;;;;;;9.98;5.37;;;;;;;11.26;60.64;100947.41;2830626;83;21567;-61
2021/04/23 17:25:53;;;;;;;11.93;4.90;;;;;;;11.31;61.13;100948.41;2806273;84;21168;-62
2021/04/23 17:29:57;;;;;;;7.62;4.87;;;;;;;11.32;60.84;100942.58;2819711;84;21208;-62
2021/04/23 17:34:00;;;;;;;6.50;4.87;;;;;;;11.33;60.64;100948.27;2819929;84;21209;-62
2021/04/23 17:38:03;;;;;;;8.70;5.47;;;;;;;11.28;60.46;100949.47;2819507;84;21165;-61
2021/04/23 17:42:06;;;;;;;11.48;6.65;;;;;;;11.17;60.63;100952.56;2780450;84;21166;-61
2021/04/23 17:46:12;;;;;;;22.58;8.18;;;;;;;11.03;61.08;100951.77;2767926;86;21215;-60
2021/04/23 17:50:19;;;;;;;9.00;5.07;;;;;;;10.87;61.64;100952.04;2768405;85;21603;-61
2021/04/23 17:54:24;;;;;;;10.00;5.33;;;;;;;10.68;62.16;100950.70;2768217;84;21584;-65
2021/04/23 17:58:27;;;;;;;13.25;5.15;;;;;;;10.49;62.57;100947.66;2768227;85;21615;-61
2021/04/23 18:02:31;;;;;;;10.45;6.03;;;;;;;10.34;63.04;100955.72;2768088;86;21261;-60
2021/04/23 18:06:35;;;;;;;11.10;6.12;;;;;;;10.25;63.42;100957.71;2768117;85;21194;-60
2021/04/23 18:10:38;;;;;;;13.55;7.70;;;;;;;10.20;63.54;100963.34;2786063;84;21594;-61
2021/04/23 18:14:43;;;;;;;12.63;6.60;;;;;;;10.16;63.79;100967.17;2814914;84;21212;-60
2021/04/23 18:18:48;;;;;;;12.65;6.37;;;;;;;10.15;64.08;100969.47;2814860;84;21181;-61
2021/04/23 18:22:53;;;;;;;10.80;7.20;;;;;;;10.14;63.94;100967.27;2814911;84;21175;-61
2021/04/23 18:26:57;;;;;;;13.88;7.42;;;;;;;10.18;63.93;100968.38;2814529;83;21211;-61
2021/04/23 18:31:01;;;;;;;12.05;6.83;;;;;;;10.18;64.01;100970.58;2814814;84;21192;-61
2021/04/23 18:35:06;;;;;;;11.97;6.67;;;;;;;10.17;63.98;100976.85;2814698;84;21145;-61
2021/04/23 18:39:13;;;;;;;13.08;6.37;;;;;;;10.12;64.16;100978.95;2815199;84;21185;-60
2021/04/23 18:43:16;;;;;;;13.25;6.55;;;;;;;10.00;64.50;100989.95;2817879;84;21636;-60
2021/04/23 18:47:19;;;;;;;9.73;6.10;;;;;;;9.84;64.94;100992.35;2771477;85;21577;-60
2021/04/23 18:51:24;;;;;;;17.12;6.22;;;;;;;9.68;65.29;100995.17;2771528;85;21198;-59
2021/04/23 18:55:30;;;;;;;12.80;7.37;;;;;;;9.53;65.61;101001.03;2771490;85;21620;-61
2021/04/23 18:59:33;;;;;;;13.65;7.25;;;;;;;9.39;65.97;100999.75;2771575;84;21182;-60
2021/04/23 19:03:39;;;;;;;17.67;8.63;;;;;;;9.22;66.43;100998.20;2771795;85;21154;-60
2021/04/23 19:07:43;;;;;;;16.57;8.15;;;;;;;9.09;66.94;100998.98;2771667;84;21660;-60
2021/04/23 19:11:48;;;;;;;11.30;6.78;;;;;;;8.98;67.40;100999.68;2765184;86;21106;-61
2021/04/23 19:15:52;;;;;;;12.43;7.28;;;;;;;8.91;67.89;101002.81;2788081;85;21620;-60